createdAt,value
2018-07-28T00:01:54.777Z,67.99
2018-07-28T00:04:25.108Z,67.12
2018-07-28T00:06:55.392Z,67.38
2018-07-28T00:09:25.677Z,66.43
2018-07-28T00:11:56.069Z,66.33
2018-07-28T00:14:26.378Z,65.66
2018-07-28T00:16:57.092Z,65.86
2018-07-28T00:19:27.473Z,65.72
2018-07-28T00:21:58.280Z,65.96
2018-07-28T00:24:28.985Z,66.72
2018-07-28T00:26:59.817Z,67.32
2018-07-28T00:29:30.388Z,66.97
2018-07-28T00:32:01.069Z,68.99
2018-07-28T00:34:31.818Z,69.25
2018-07-28T00:37:02.677Z,68.80
2018-07-28T00:39:33.221Z,70.18
2018-07-28T00:42:04.188Z,67.96
2018-07-28T00:44:34.493Z,69.27
2018-07-28T00:47:05.242Z,67.61
2018-07-28T00:49:35.845Z,67.06
2018-07-28T00:52:06.661Z,67.31
2018-07-28T00:54:37.212Z,67.88
2018-07-28T00:57:07.683Z,67.74
2018-07-28T00:59:38.002Z,67.78
2018-07-28T01:02:08.899Z,68.34
2018-07-28T01:04:39.184Z,68.32
2018-07-28T01:07:09.494Z,68.35
2018-07-28T01:09:39.833Z,69.08
2018-07-28T01:12:10.113Z,67.80
2018-07-28T01:14:40.477Z,69.04
2018-07-28T01:17:10.684Z,69.87
2018-07-28T01:19:41.127Z,70.03
2018-07-28T01:22:11.473Z,69.07
2018-07-28T01:24:41.956Z,68.02
2018-07-28T01:27:12.317Z,69.08
2018-07-28T01:29:42.917Z,69.29
2018-07-28T01:32:13.253Z,70.79
2018-07-28T01:34:43.549Z,70.92
2018-07-28T01:37:13.789Z,71.11
2018-07-28T01:39:44.208Z,70.02
2018-07-28T01:42:14.501Z,70.66
2018-07-28T01:44:44.800Z,70.10
2018-07-28T01:47:15.032Z,70.09
2018-07-28T01:49:45.693Z,71.26
2018-07-28T01:52:15.940Z,71.50
2018-07-28T01:54:46.477Z,71.39
2018-07-28T01:57:16.818Z,70.36
2018-07-28T01:59:47.466Z,69.02
2018-07-28T02:02:17.704Z,70.23
2018-07-28T02:04:48.362Z,69.20
2018-07-28T02:07:18.622Z,70.77
2018-07-28T02:09:48.949Z,69.04
2018-07-28T02:12:19.253Z,69.30
2018-07-28T02:14:49.617Z,69.07
2018-07-28T02:17:20.051Z,69.21
2018-07-28T02:19:50.661Z,69.77
2018-07-28T02:22:21.185Z,70.22
2018-07-28T02:24:51.445Z,70.81
2018-07-28T02:27:21.862Z,71.57
2018-07-28T02:29:52.217Z,70.07
2018-07-28T02:32:22.510Z,70.44
2018-07-28T02:34:53.434Z,69.98
2018-07-28T02:37:23.728Z,71.38
2018-07-28T02:39:54.281Z,71.37
2018-07-28T02:42:24.543Z,70.20
2018-07-28T02:44:54.816Z,70.23
2018-07-28T02:47:25.094Z,69.50
2018-07-28T02:49:55.624Z,70.15
2018-07-28T02:52:25.878Z,69.88
2018-07-28T02:54:57.337Z,68.68
2018-07-28T02:57:27.623Z,69.59
2018-07-28T02:59:57.463Z,70.08
2018-07-28T03:02:28.033Z,70.77
2018-07-28T03:04:58.767Z,71.18
2018-07-28T03:07:30.313Z,70.99
2018-07-28T03:10:01.181Z,69.71
2018-07-28T03:12:31.889Z,68.36
2018-07-28T03:15:04.139Z,68.97
2018-07-28T03:17:34.673Z,69.24
2018-07-28T03:20:05.753Z,69.00
2018-07-28T03:22:36.345Z,69.94
2018-07-28T03:25:07.420Z,70.18
2018-07-28T03:27:38.016Z,70.13
2018-07-28T03:30:08.657Z,70.07
2018-07-28T03:32:39.278Z,70.38
2018-07-28T03:35:10.117Z,68.78
2018-07-28T03:37:40.765Z,67.82
2018-07-28T03:40:11.393Z,68.04
2018-07-28T03:42:41.996Z,68.04
2018-07-28T03:45:13.093Z,67.49
2018-07-28T03:47:43.838Z,67.58
2018-07-28T03:50:15.740Z,68.10
2018-07-28T03:52:46.176Z,67.99
2018-07-28T03:55:17.037Z,68.62
2018-07-28T03:57:47.800Z,68.09
2018-07-28T04:00:18.456Z,68.20
2018-07-28T04:02:49.265Z,68.34
2018-07-28T04:05:20.041Z,67.29
2018-07-28T04:07:50.664Z,66.53
2018-07-28T04:10:21.181Z,67.04
2018-07-28T04:12:51.435Z,67.74
2018-07-28T04:15:43.172Z,68.53
2018-07-28T04:18:13.384Z,68.37
2018-07-28T04:20:46.272Z,67.39
2018-07-28T04:23:16.881Z,67.97
2018-07-28T04:25:48.681Z,68.75
2018-07-28T04:28:19.438Z,69.62
2018-07-28T04:30:50.141Z,69.67
2018-07-28T04:33:20.682Z,68.92
2018-07-28T04:35:51.245Z,69.22
2018-07-28T04:38:21.797Z,69.61
2018-07-28T04:40:52.475Z,68.61
2018-07-28T04:43:24.643Z,67.45
2018-07-28T04:45:55.536Z,67.62
2018-07-28T04:48:25.772Z,68.40
2018-07-28T04:50:56.296Z,67.92
2018-07-28T04:53:26.573Z,67.64
2018-07-28T04:55:57.312Z,66.84
2018-07-28T04:58:28.040Z,66.18
2018-07-28T05:00:58.849Z,65.43
2018-07-28T05:03:29.380Z,65.34
2018-07-28T05:06:00.258Z,63.46
2018-07-28T05:08:31.109Z,61.88
2018-07-28T05:11:01.900Z,61.79
2018-07-28T05:13:32.517Z,60.79
2018-07-28T05:16:03.246Z,61.19
2018-07-28T05:18:33.740Z,60.89
2018-07-28T05:21:04.122Z,62.07
2018-07-28T05:23:34.905Z,60.72
2018-07-28T05:26:09.387Z,60.64
2018-07-28T05:28:39.804Z,59.48
2018-07-28T05:31:10.258Z,58.57
2018-07-28T05:33:40.878Z,55.95
2018-07-28T05:36:12.073Z,56.15
2018-07-28T05:38:42.429Z,55.64
2018-07-28T05:41:13.178Z,55.74
2018-07-28T05:43:43.436Z,54.30
2018-07-28T05:46:15.433Z,53.16
2018-07-28T05:48:45.775Z,53.38
2018-07-28T05:51:16.285Z,52.66
2018-07-28T05:53:46.660Z,51.74
2018-07-28T05:56:17.525Z,51.75
2018-07-28T05:58:48.674Z,52.23
2018-07-28T06:01:20.011Z,50.47
2018-07-28T06:03:50.790Z,50.16
2018-07-28T06:06:21.841Z,49.97
2018-07-28T06:08:52.789Z,48.00
2018-07-28T06:11:24.028Z,48.82
2018-07-28T06:13:55.797Z,49.82
2018-07-28T06:16:26.492Z,49.44
2018-07-28T06:18:57.097Z,48.63
2018-07-28T06:21:27.665Z,50.40
2018-07-28T06:23:58.837Z,49.16
2018-07-28T06:26:29.747Z,49.99
2018-07-28T06:29:00.669Z,51.49
2018-07-28T06:31:31.497Z,48.52
2018-07-28T06:34:01.930Z,49.42
2018-07-28T06:36:32.557Z,49.58
2018-07-28T06:39:03.160Z,48.49
2018-07-28T06:41:33.905Z,48.32
2018-07-28T06:44:04.795Z,48.23
2018-07-28T06:46:35.783Z,47.33
2018-07-28T06:49:08.082Z,48.47
2018-07-28T06:51:39.749Z,47.26
2018-07-28T06:54:11.837Z,47.26
2018-07-28T06:56:43.471Z,46.55
2018-07-28T06:59:13.963Z,46.11
2018-07-28T07:01:46.596Z,47.41
2018-07-28T07:04:17.087Z,44.99
2018-07-28T07:06:47.312Z,42.72
2018-07-28T07:09:17.865Z,43.21
2018-07-28T07:11:48.173Z,44.50
2018-07-28T07:14:18.878Z,44.02
2018-07-28T07:16:49.596Z,42.19
2018-07-28T07:19:20.085Z,42.63
2018-07-28T07:21:50.603Z,42.38
2018-07-28T07:24:21.374Z,41.03
2018-07-28T07:26:52.007Z,41.41
2018-07-28T07:29:24.222Z,42.36
2018-07-28T07:31:54.997Z,45.48
2018-07-28T07:34:25.832Z,45.47
2018-07-28T07:36:56.512Z,46.44
2018-07-28T07:39:27.397Z,44.30
2018-07-28T07:41:58.017Z,42.04
2018-07-28T07:44:28.606Z,42.89
2018-07-28T07:46:59.521Z,42.49
2018-07-28T07:49:30.253Z,41.41
2018-07-28T07:52:01.214Z,42.07
2018-07-28T07:54:32.193Z,39.99
2018-07-28T07:57:03.031Z,39.74
2018-07-28T07:59:34.769Z,39.68
2018-07-28T08:02:05.839Z,38.50
2018-07-28T08:04:36.499Z,39.12
2018-07-28T08:07:07.125Z,38.86
2018-07-28T08:09:37.748Z,38.25
2018-07-28T08:12:08.573Z,36.29
2018-07-28T08:14:39.389Z,37.18
2018-07-28T08:17:10.005Z,36.63
2018-07-28T08:19:41.400Z,37.07
2018-07-28T08:22:12.073Z,37.80
2018-07-28T08:24:42.625Z,40.31
2018-07-28T08:27:13.340Z,37.73
2018-07-28T08:29:44.177Z,37.89
2018-07-28T08:32:14.448Z,37.52
2018-07-28T08:34:45.532Z,36.54
2018-07-28T08:37:15.857Z,35.45
2018-07-28T08:39:46.690Z,35.21
2018-07-28T08:42:17.168Z,36.54
2018-07-28T08:44:47.952Z,35.76
2018-07-28T08:47:18.677Z,33.91
2018-07-28T08:49:48.894Z,33.94
2018-07-28T08:52:19.052Z,34.27
2018-07-28T08:55:09.707Z,35.33
2018-07-28T08:57:45.496Z,35.81
2018-07-28T09:00:16.401Z,35.00
2018-07-28T09:02:47.073Z,34.61
2018-07-28T09:05:17.878Z,34.59
2018-07-28T09:07:48.493Z,36.72
2018-07-28T09:10:19.568Z,35.81
2018-07-28T09:12:50.216Z,34.15
2018-07-28T09:15:20.993Z,35.77
2018-07-28T09:17:51.765Z,33.93
2018-07-28T09:20:22.397Z,33.69
2018-07-28T09:22:53.076Z,34.43
2018-07-28T09:25:23.929Z,34.26
2018-07-28T09:27:54.621Z,32.12
2018-07-28T09:30:25.489Z,30.37
2018-07-28T09:32:56.077Z,32.36
2018-07-28T09:35:26.849Z,32.76
2018-07-28T09:37:57.580Z,32.27
2018-07-28T09:40:28.406Z,31.37
2018-07-28T09:42:59.105Z,30.01
2018-07-28T09:45:29.864Z,28.79
2018-07-28T09:48:00.417Z,28.48
2018-07-28T09:50:31.105Z,29.94
2018-07-28T09:53:01.616Z,30.86
2018-07-28T09:55:32.288Z,31.29
2018-07-28T09:58:02.998Z,28.76
2018-07-28T10:00:38.761Z,32.61
2018-07-28T10:03:09.330Z,31.42
2018-07-28T10:05:40.089Z,31.08
2018-07-28T10:08:10.621Z,32.53
2018-07-28T10:10:41.296Z,32.38
2018-07-28T10:13:12.013Z,32.84
2018-07-28T10:15:42.916Z,32.02
2018-07-28T10:18:13.560Z,32.23
2018-07-28T10:20:44.117Z,32.92
2018-07-28T10:23:14.814Z,31.99
2018-07-28T10:25:45.821Z,32.42
2018-07-28T10:28:16.280Z,30.73
2018-07-28T10:30:47.189Z,28.90
2018-07-28T10:33:17.828Z,31.96
2018-07-28T10:35:48.581Z,30.67
2018-07-28T10:38:19.152Z,28.36
2018-07-28T10:40:49.780Z,29.21
2018-07-28T10:43:20.493Z,29.32
2018-07-28T10:45:51.292Z,29.71
2018-07-28T10:48:21.780Z,29.25
2018-07-28T10:50:52.717Z,28.71
2018-07-28T10:53:23.285Z,29.59
2018-07-28T10:55:53.973Z,29.32
2018-07-28T10:58:24.757Z,33.76
2018-07-28T11:00:55.613Z,30.49
2018-07-28T11:03:25.584Z,29.09
2018-07-28T11:05:56.226Z,29.98
2018-07-28T11:08:26.744Z,29.45
2018-07-28T11:10:57.352Z,30.05
2018-07-28T11:13:27.972Z,31.04
2018-07-28T11:15:59.004Z,28.97
2018-07-28T11:18:29.621Z,28.33
2018-07-28T11:21:00.409Z,26.46
2018-07-28T11:24:02.582Z,27.98
2018-07-28T11:26:33.449Z,25.09
2018-07-28T11:29:04.150Z,26.89
2018-07-28T11:31:51.082Z,26.22
2018-07-28T11:34:37.826Z,26.19
2018-07-28T11:37:24.641Z,25.17
2018-07-28T11:40:11.388Z,25.64
2018-07-28T11:42:58.311Z,29.15
2018-07-28T11:45:28.956Z,27.66
2018-07-28T11:47:59.785Z,27.09
2018-07-28T11:50:30.326Z,28.07
2018-07-28T11:53:01.113Z,27.87
2018-07-28T11:55:31.793Z,28.72
2018-07-28T11:58:02.894Z,29.57
2018-07-28T12:00:33.508Z,29.90
2018-07-28T12:03:04.341Z,32.14
2018-07-28T12:05:34.926Z,29.90
2018-07-28T12:08:05.562Z,28.23
2018-07-28T12:10:36.224Z,30.03
2018-07-28T12:13:06.608Z,29.49
2018-07-28T12:15:37.348Z,28.71
2018-07-28T12:18:08.487Z,28.57
2018-07-28T12:20:39.220Z,29.99
2018-07-28T12:23:09.945Z,28.78
2018-07-28T12:25:40.640Z,31.14
2018-07-28T12:28:11.448Z,29.21
2018-07-28T12:30:42.137Z,29.20
2018-07-28T12:33:12.808Z,28.78
2018-07-28T12:35:43.679Z,31.65
2018-07-28T12:38:14.437Z,26.35
2018-07-28T12:40:45.113Z,26.39
2018-07-28T12:43:15.764Z,27.39
2018-07-28T12:45:46.321Z,28.48
2018-07-28T12:48:17.116Z,27.04
2018-07-28T12:50:47.888Z,29.81
2018-07-28T12:53:18.742Z,28.77
2018-07-28T12:55:49.517Z,28.60
2018-07-28T12:58:20.268Z,28.66
2018-07-28T13:00:50.893Z,30.59
2018-07-28T13:03:21.585Z,29.11
2018-07-28T13:05:52.217Z,28.04
2018-07-28T13:08:23.149Z,30.38
2018-07-28T13:10:53.824Z,29.98
2018-07-28T13:13:24.800Z,30.27
2018-07-28T13:15:55.542Z,28.72
2018-07-28T13:18:26.200Z,28.72
2018-07-28T13:20:56.801Z,28.82
2018-07-28T13:23:27.660Z,29.21
2018-07-28T13:25:58.217Z,36.83
2018-07-28T13:28:29.024Z,41.69
2018-07-28T13:30:59.677Z,48.92
2018-07-28T13:33:30.545Z,53.56
2018-07-28T13:36:01.197Z,55.93
2018-07-28T13:38:31.905Z,57.23
2018-07-28T13:41:02.562Z,58.74
2018-07-28T13:43:33.069Z,60.16
2018-07-28T13:46:21.052Z,61.96
2018-07-28T13:48:51.719Z,65.02
2018-07-28T13:51:22.349Z,66.07
2018-07-28T13:53:52.876Z,68.21
2018-07-28T13:56:23.496Z,69.01
2018-07-28T13:58:54.333Z,68.73
2018-07-28T14:01:24.865Z,69.68
2018-07-28T14:03:55.798Z,67.21
2018-07-28T14:06:26.362Z,64.02
2018-07-28T14:08:56.838Z,63.03
2018-07-28T14:11:27.389Z,62.46
2018-07-28T14:13:58.117Z,60.63
2018-07-28T14:16:28.601Z,60.95
2018-07-28T14:18:59.446Z,61.31
2018-07-28T14:21:29.989Z,60.84
2018-07-28T14:24:00.638Z,60.21
2018-07-28T14:26:31.145Z,62.02
2018-07-28T14:29:01.841Z,60.37
2018-07-28T14:31:32.286Z,59.58
2018-07-28T14:34:03.153Z,61.14
2018-07-28T14:36:42.444Z,58.05
2018-07-28T14:39:13.121Z,57.05
2018-07-28T14:41:43.749Z,57.82
2018-07-28T14:44:14.443Z,60.06
2018-07-28T14:46:45.267Z,58.87
2018-07-28T14:49:16.205Z,59.84
2018-07-28T14:51:47.529Z,58.91
2018-07-28T14:54:18.037Z,57.03
2018-07-28T14:56:48.917Z,56.53
2018-07-28T14:59:19.865Z,60.28
2018-07-28T15:01:50.377Z,57.91
2018-07-28T15:04:21.169Z,57.30
2018-07-28T15:06:51.813Z,57.47
2018-07-28T15:09:22.508Z,59.13
2018-07-28T15:11:53.145Z,56.34
2018-07-28T15:14:23.812Z,56.44
2018-07-28T15:16:54.494Z,56.68
2018-07-28T15:19:25.297Z,56.04
2018-07-28T15:21:55.949Z,57.54
2018-07-28T15:24:27.026Z,58.15
2018-07-28T15:26:57.748Z,58.67
2018-07-28T15:29:28.376Z,58.92
2018-07-28T15:31:59.002Z,58.79
2018-07-28T15:34:29.720Z,59.16
2018-07-28T15:37:00.380Z,59.76
2018-07-28T15:39:30.649Z,59.61
2018-07-28T15:42:01.260Z,59.79
2018-07-28T15:44:32.084Z,59.96
2018-07-28T15:47:02.897Z,59.30
2018-07-28T15:49:33.925Z,59.61
2018-07-28T15:52:04.478Z,58.81
2018-07-28T15:54:35.301Z,58.52
2018-07-28T15:57:06.273Z,58.42
2018-07-28T15:59:37.104Z,57.54
2018-07-28T16:02:07.881Z,58.78
2018-07-28T16:04:38.649Z,58.30
2018-07-28T16:07:09.397Z,58.84
2018-07-28T16:09:40.597Z,60.59
2018-07-28T16:12:11.152Z,59.00
2018-07-28T16:14:41.989Z,59.24
2018-07-28T16:17:12.613Z,58.91
2018-07-28T16:19:43.300Z,57.85
2018-07-28T16:22:13.936Z,58.19
2018-07-28T16:24:45.022Z,57.90
2018-07-28T16:27:15.569Z,58.62
2018-07-28T16:29:46.457Z,57.89
2018-07-28T16:32:17.045Z,57.54
2018-07-28T16:34:47.632Z,57.25
2018-07-28T16:37:18.216Z,56.65
2018-07-28T16:39:48.616Z,58.66
2018-07-28T16:42:19.236Z,59.22
2018-07-28T16:44:50.073Z,60.45
2018-07-28T16:47:20.637Z,60.92
2018-07-28T16:49:51.408Z,60.24
2018-07-28T16:52:22.214Z,62.09
2018-07-28T16:54:53.238Z,60.62
2018-07-28T16:57:23.881Z,59.76
2018-07-28T16:59:54.704Z,58.98
2018-07-28T17:02:25.246Z,58.93
2018-07-28T17:04:56.073Z,59.95
2018-07-28T17:07:26.754Z,60.26
2018-07-28T17:09:57.810Z,59.29
2018-07-28T17:12:28.432Z,59.26
2018-07-28T17:14:59.062Z,60.80
2018-07-28T17:17:29.613Z,60.83
2018-07-28T17:20:00.218Z,60.86
2018-07-28T17:22:30.871Z,60.25
2018-07-28T17:25:01.590Z,60.35
2018-07-28T17:27:32.268Z,60.55
2018-07-28T17:30:03.056Z,59.18
2018-07-28T17:32:33.636Z,58.21
2018-07-28T17:35:04.501Z,59.37
2018-07-28T17:37:35.816Z,58.99
2018-07-28T17:40:06.452Z,58.76
2018-07-28T17:42:37.076Z,58.17
2018-07-28T17:45:08.502Z,58.97
2018-07-28T17:47:39.017Z,58.60
2018-07-28T17:50:09.619Z,58.92
2018-07-28T17:52:40.188Z,59.97
2018-07-28T17:55:10.825Z,60.92
2018-07-28T17:57:41.476Z,60.78
2018-07-28T18:00:12.181Z,59.74
2018-07-28T18:02:42.788Z,59.48
2018-07-28T18:05:13.417Z,59.11
2018-07-28T18:07:44.066Z,60.25
2018-07-28T18:10:15.101Z,60.61
2018-07-28T18:12:45.672Z,59.65
2018-07-28T18:15:16.449Z,60.55
2018-07-28T18:17:47.194Z,59.94
2018-07-28T18:20:17.950Z,59.99
2018-07-28T18:22:48.726Z,60.00
2018-07-28T18:25:19.461Z,60.20
2018-07-28T18:27:49.973Z,59.52
2018-07-28T18:30:20.813Z,59.88
2018-07-28T18:32:51.595Z,58.81
2018-07-28T18:35:22.573Z,58.74
2018-07-28T18:37:53.221Z,57.53
2018-07-28T18:40:23.970Z,57.54
2018-07-28T18:42:54.198Z,58.21
2018-07-28T18:45:24.961Z,58.55
2018-07-28T18:47:55.697Z,58.78
2018-07-28T18:50:26.553Z,59.06
2018-07-28T18:52:57.205Z,58.52
2018-07-28T18:55:28.004Z,58.71
2018-07-28T18:57:58.628Z,59.88
2018-07-28T19:00:29.369Z,60.36
2018-07-28T19:02:59.937Z,60.49
2018-07-28T19:05:30.605Z,60.33
2018-07-28T19:08:01.285Z,60.53
2018-07-28T19:10:31.945Z,61.22
2018-07-28T19:13:07.645Z,60.42
2018-07-28T19:15:38.530Z,61.11
2018-07-28T19:18:14.081Z,60.00
2018-07-28T19:20:44.797Z,59.33
2018-07-28T19:23:20.340Z,60.80
2018-07-28T19:25:50.857Z,59.37
2018-07-28T19:28:26.373Z,59.59
2018-07-28T19:30:57.098Z,59.16
2018-07-28T19:33:27.657Z,58.83
2018-07-28T19:36:03.278Z,58.75
2018-07-28T19:38:33.936Z,59.10
2018-07-28T19:41:04.510Z,59.20
2018-07-28T19:43:35.117Z,59.65
2018-07-28T19:46:05.957Z,60.24
2018-07-28T19:48:36.697Z,60.42
2018-07-28T19:51:07.893Z,59.67
2018-07-28T19:53:38.393Z,59.75
2018-07-28T19:56:09.126Z,59.62
2018-07-28T19:58:39.732Z,59.67
2018-07-28T20:01:10.689Z,59.78
2018-07-28T20:03:41.396Z,60.80
2018-07-28T20:06:12.533Z,60.85
2018-07-28T20:08:43.214Z,59.49
2018-07-28T20:11:14.000Z,58.81
2018-07-28T20:13:44.684Z,59.28
2018-07-28T20:16:15.408Z,59.62
2018-07-28T20:18:45.982Z,62.08
2018-07-28T20:21:16.685Z,63.29
2018-07-28T20:23:47.312Z,62.30
2018-07-28T20:26:18.242Z,62.74
2018-07-28T20:28:48.841Z,61.24
2018-07-28T20:31:19.545Z,61.23
2018-07-28T20:33:50.197Z,61.83
2018-07-28T20:36:21.189Z,60.46
2018-07-28T20:38:51.817Z,60.74
2018-07-28T20:41:22.532Z,60.44
2018-07-28T20:43:54.057Z,60.49
2018-07-28T20:46:24.733Z,60.58
2018-07-28T20:48:55.384Z,59.56
2018-07-28T20:51:26.159Z,59.59
2018-07-28T20:53:56.776Z,59.83
2018-07-28T20:56:27.384Z,59.95
2018-07-28T20:58:57.904Z,61.07
2018-07-28T21:01:28.480Z,60.12
2018-07-28T21:03:59.097Z,63.76
2018-07-28T21:06:29.861Z,66.62
2018-07-28T21:09:00.659Z,67.48
2018-07-28T21:11:31.382Z,69.21
2018-07-28T21:14:02.924Z,69.65
2018-07-28T21:16:33.794Z,69.36
2018-07-28T21:19:04.737Z,68.68
2018-07-28T21:21:36.871Z,68.01
2018-07-28T21:24:07.726Z,68.36
2018-07-28T21:26:38.393Z,67.80
2018-07-28T21:29:09.034Z,68.30
2018-07-28T21:31:39.857Z,69.90
2018-07-28T21:34:10.555Z,72.07
2018-07-28T21:36:41.938Z,72.09
2018-07-28T21:39:12.465Z,73.33
2018-07-28T21:41:43.145Z,73.21
2018-07-28T21:44:13.717Z,73.15
2018-07-28T21:46:44.789Z,73.39
2018-07-28T21:49:15.397Z,72.63
2018-07-28T21:51:46.077Z,72.51
2018-07-28T21:54:16.803Z,72.77
2018-07-28T21:56:47.426Z,73.88
2018-07-28T21:59:18.211Z,73.22
2018-07-28T22:01:48.388Z,74.44
2018-07-28T22:04:23.869Z,73.94
2018-07-28T22:06:55.506Z,72.98
2018-07-28T22:09:26.141Z,72.94
2018-07-28T22:11:56.724Z,72.44
2018-07-28T22:14:27.736Z,72.11
2018-07-28T22:16:58.545Z,71.70
2018-07-28T22:19:47.625Z,72.26
2018-07-28T22:22:18.037Z,73.01
2018-07-28T22:24:48.872Z,72.18
2018-07-28T22:27:19.409Z,73.42
2018-07-28T22:29:50.268Z,73.33
2018-07-28T22:32:20.841Z,73.54
2018-07-28T22:34:51.831Z,72.73
2018-07-28T22:37:22.364Z,72.21
2018-07-28T22:39:52.985Z,70.47
2018-07-28T22:42:38.544Z,70.82
2018-07-28T22:45:09.299Z,70.89
2018-07-28T22:47:39.929Z,70.06
2018-07-28T22:50:10.724Z,69.81
2018-07-28T22:52:41.443Z,69.94
2018-07-28T22:55:12.393Z,68.77
2018-07-28T22:57:43.085Z,67.65
2018-07-28T23:00:13.954Z,67.81
2018-07-28T23:02:46.357Z,69.65
2018-07-28T23:05:17.160Z,69.23
2018-07-28T23:07:47.796Z,69.23
2018-07-28T23:10:18.388Z,71.54
2018-07-28T23:12:49.118Z,71.49
2018-07-28T23:15:19.896Z,72.46
2018-07-28T23:17:50.636Z,71.49
2018-07-28T23:20:21.423Z,72.42
2018-07-28T23:22:51.969Z,73.33
2018-07-28T23:25:22.768Z,72.47
2018-07-28T23:27:53.625Z,72.70
2018-07-28T23:30:24.637Z,72.18
2018-07-28T23:32:56.779Z,70.75
2018-07-28T23:35:27.511Z,69.81
2018-07-28T23:37:58.206Z,70.02
2018-07-28T23:40:28.928Z,68.38
2018-07-28T23:42:59.500Z,67.68
2018-07-28T23:45:31.437Z,69.70
2018-07-28T23:48:01.973Z,67.61
2018-07-28T23:50:32.524Z,67.56
2018-07-28T23:53:03.584Z,68.51
2018-07-28T23:55:34.414Z,70.01
2018-07-28T23:58:05.048Z,69.44
